sensor_id;sensor_type;location;lat;lon;timestamp;pressure;altitude;pressure_sealevel;temperature;humidity
65553;BME280;52465;51.560;14.368;2023-04-23T00:00:04;99534.84;;;16.22;56.51
65553;BME280;52465;51.560;14.368;2023-04-23T00:02:34;99545.16;;;16.36;56.37
65553;BME280;52465;51.560;14.368;2023-04-23T00:05:04;99547.78;;;16.36;56.48
65553;BME280;52465;51.560;14.368;2023-04-23T00:07:31;99533.38;;;16.32;56.44
65553;BME280;52465;51.560;14.368;2023-04-23T00:09:58;99539.06;;;16.36;56.45
65553;BME280;52465;51.560;14.368;2023-04-23T00:12:26;99539.06;;;16.36;56.63
65553;BME280;52465;51.560;14.368;2023-04-23T00:14:52;99534.81;;;16.35;56.53
65553;BME280;52465;51.560;14.368;2023-04-23T00:17:17;99518.59;;;16.25;56.56
65553;BME280;52465;51.560;14.368;2023-04-23T00:19:44;99518.78;;;16.30;56.65
65553;BME280;52465;51.560;14.368;2023-04-23T00:22:10;99516.56;;;16.27;56.74
65553;BME280;52465;51.560;14.368;2023-04-23T00:24:35;99504.81;;;16.23;56.63
65553;BME280;52465;51.560;14.368;2023-04-23T00:27:03;99502.34;;;16.21;56.44
65553;BME280;52465;51.560;14.368;2023-04-23T00:29:28;99516.94;;;16.30;56.64
65553;BME280;52465;51.560;14.368;2023-04-23T00:31:54;99498.91;;;16.21;56.49
65553;BME280;52465;51.560;14.368;2023-04-23T00:34:19;99485.97;;;16.12;56.63
65553;BME280;52465;51.560;14.368;2023-04-23T00:36:45;99506.59;;;16.29;56.68
65553;BME280;52465;51.560;14.368;2023-04-23T00:39:10;99515.56;;;16.28;56.70
65553;BME280;52465;51.560;14.368;2023-04-23T00:41:36;99503.16;;;16.22;56.66
65553;BME280;52465;51.560;14.368;2023-04-23T00:44:01;99501.72;;;16.26;56.56
65553;BME280;52465;51.560;14.368;2023-04-23T00:46:27;99505.19;;;16.26;56.73
65553;BME280;52465;51.560;14.368;2023-04-23T00:48:53;99506.22;;;16.25;56.81
65553;BME280;52465;51.560;14.368;2023-04-23T00:51:20;99507.00;;;16.26;56.94
65553;BME280;52465;51.560;14.368;2023-04-23T00:53:50;99499.13;;;16.19;56.67
65553;BME280;52465;51.560;14.368;2023-04-23T00:56:16;99488.00;;;16.10;56.71
65553;BME280;52465;51.560;14.368;2023-04-23T00:58:43;99482.31;;;16.13;56.76
65553;BME280;52465;51.560;14.368;2023-04-23T01:01:09;99454.78;;;15.96;56.75
65553;BME280;52465;51.560;14.368;2023-04-23T01:03:35;99478.09;;;16.06;57.02
65553;BME280;52465;51.560;14.368;2023-04-23T01:06:02;99488.38;;;16.14;56.88
65553;BME280;52465;51.560;14.368;2023-04-23T01:08:28;99494.06;;;16.18;56.86
65553;BME280;52465;51.560;14.368;2023-04-23T01:10:56;99455.81;;;15.95;56.96
65553;BME280;52465;51.560;14.368;2023-04-23T01:13:22;99493.25;;;16.17;57.00
65553;BME280;52465;51.560;14.368;2023-04-23T01:16:09;99491.63;;;16.16;56.95
65553;BME280;52465;51.560;14.368;2023-04-23T01:18:35;99488.78;;;16.18;56.86
65553;BME280;52465;51.560;14.368;2023-04-23T01:21:00;99482.09;;;16.15;57.04
65553;BME280;52465;51.560;14.368;2023-04-23T01:23:26;99473.41;;;16.08;56.88
65553;BME280;52465;51.560;14.368;2023-04-23T01:25:53;99491.84;;;16.14;57.04
65553;BME280;52465;51.560;14.368;2023-04-23T01:28:19;99481.50;;;16.13;57.11
65553;BME280;52465;51.560;14.368;2023-04-23T01:31:03;99492.88;;;16.13;57.03
65553;BME280;52465;51.560;14.368;2023-04-23T01:33:29;99494.69;;;16.13;57.07
65553;BME280;52465;51.560;14.368;2023-04-23T01:35:56;99492.06;;;16.13;57.03
65553;BME280;52465;51.560;14.368;2023-04-23T01:38:22;99478.91;;;16.06;56.96
65553;BME280;52465;51.560;14.368;2023-04-23T01:40:47;99479.91;;;16.05;57.12
65553;BME280;52465;51.560;14.368;2023-04-23T01:43:16;99487.22;;;16.03;57.04
65553;BME280;52465;51.560;14.368;2023-04-23T01:45:42;99487.22;;;16.03;57.18
65553;BME280;52465;51.560;14.368;2023-04-23T01:48:07;99481.97;;;15.97;57.05
65553;BME280;52465;51.560;14.368;2023-04-23T01:50:33;99497.75;;;16.10;57.20
65553;BME280;52465;51.560;14.368;2023-04-23T01:52:58;99488.44;;;16.07;57.27
65553;BME280;52465;51.560;14.368;2023-04-23T01:55:24;99494.53;;;16.08;57.37
65553;BME280;52465;51.560;14.368;2023-04-23T01:57:49;99489.28;;;16.01;57.24
65553;BME280;52465;51.560;14.368;2023-04-23T02:00:15;99467.19;;;15.89;57.17
65553;BME280;52465;51.560;14.368;2023-04-23T02:02:44;99472.47;;;15.89;57.37
65553;BME280;52465;51.560;14.368;2023-04-23T02:05:15;99494.13;;;16.04;57.36
65553;BME280;52465;51.560;14.368;2023-04-23T02:07:43;99478.09;;;15.99;57.18
65553;BME280;52465;51.560;14.368;2023-04-23T02:10:10;99483.38;;;15.99;57.33
65553;BME280;52465;51.560;14.368;2023-04-23T02:12:36;99450.97;;;15.85;57.16
65553;BME280;52465;51.560;14.368;2023-04-23T02:15:02;99482.97;;;16.02;57.38
65553;BME280;52465;51.560;14.368;2023-04-23T02:17:28;99457.69;;;15.81;57.25
65553;BME280;52465;51.560;14.368;2023-04-23T02:19:54;99477.94;;;15.94;57.22
65553;BME280;52465;51.560;14.368;2023-04-23T02:22:22;99489.28;;;16.01;57.46
65553;BME280;52465;51.560;14.368;2023-04-23T02:24:51;99464.75;;;15.87;57.53
65553;BME280;52465;51.560;14.368;2023-04-23T02:27:17;99473.84;;;15.98;57.53
65553;BME280;52465;51.560;14.368;2023-04-23T02:29:43;99475.50;;;15.93;57.47
65553;BME280;52465;51.560;14.368;2023-04-23T02:32:09;99478.94;;;15.93;57.33
65553;BME280;52465;51.560;14.368;2023-04-23T02:34:35;99475.69;;;15.98;57.52
65553;BME280;52465;51.560;14.368;2023-04-23T02:37:00;99474.28;;;15.95;57.20
65553;BME280;52465;51.560;14.368;2023-04-23T02:39:26;99481.19;;;15.96;57.47
65553;BME280;52465;51.560;14.368;2023-04-23T02:41:51;99474.28;;;15.95;57.43
65553;BME280;52465;51.560;14.368;2023-04-23T02:44:16;99456.47;;;15.84;57.45
65553;BME280;52465;51.560;14.368;2023-04-23T02:46:42;99456.47;;;15.84;57.60
65553;BME280;52465;51.560;14.368;2023-04-23T02:49:07;99457.31;;;15.78;57.42
65553;BME280;52465;51.560;14.368;2023-04-23T02:51:33;99441.69;;;15.70;57.55
65553;BME280;52465;51.560;14.368;2023-04-23T02:53:58;99471.03;;;15.93;57.64
65553;BME280;52465;51.560;14.368;2023-04-23T02:56:24;99476.53;;;15.92;57.45
65553;BME280;52465;51.560;14.368;2023-04-23T02:58:49;99471.47;;;15.90;57.52
65553;BME280;52465;51.560;14.368;2023-04-23T03:01:15;99444.34;;;15.70;57.58
65553;BME280;52465;51.560;14.368;2023-04-23T03:03:40;99481.22;;;15.90;57.56
65553;BME280;52465;51.560;14.368;2023-04-23T03:06:06;99476.13;;;15.88;57.66
65553;BME280;52465;51.560;14.368;2023-04-23T03:08:32;99472.47;;;15.89;57.75
65553;BME280;52465;51.560;14.368;2023-04-23T03:10:57;99474.13;;;15.83;57.74
65553;BME280;52465;51.560;14.368;2023-04-23T03:13:23;99472.66;;;15.87;57.80
65553;BME280;52465;51.560;14.368;2023-04-23T03:15:50;99466.22;;;15.83;57.59
65553;BME280;52465;51.560;14.368;2023-04-23T03:18:15;99452.03;;;15.71;57.68
65553;BME280;52465;51.560;14.368;2023-04-23T03:20:41;99430.38;;;15.63;57.88
65553;BME280;52465;51.560;14.368;2023-04-23T03:23:06;99473.91;;;15.85;57.76
65553;BME280;52465;51.560;14.368;2023-04-23T03:25:32;99461.94;;;15.82;57.76
65553;BME280;52465;51.560;14.368;2023-04-23T03:27:59;99468.03;;;15.83;57.81
65553;BME280;52465;51.560;14.368;2023-04-23T03:30:27;99470.88;;;15.81;57.82
65553;BME280;52465;51.560;14.368;2023-04-23T03:32:56;99462.41;;;15.73;57.70
65553;BME280;52465;51.560;14.368;2023-04-23T03:35:23;99469.03;;;15.82;57.85
65553;BME280;52465;51.560;14.368;2023-04-23T03:37:48;99463.16;;;15.80;57.87
65553;BME280;52465;51.560;14.368;2023-04-23T03:40:18;99461.34;;;15.80;57.79
65553;BME280;52465;51.560;14.368;2023-04-23T03:42:43;99458.53;;;15.75;57.80
65553;BME280;52465;51.560;14.368;2023-04-23T03:45:08;99470.28;;;15.79;57.84
65553;BME280;52465;51.560;14.368;2023-04-23T03:47:36;99457.72;;;15.75;57.75
65553;BME280;52465;51.560;14.368;2023-04-23T03:50:05;99400.75;;;15.47;57.76
65553;BME280;52465;51.560;14.368;2023-04-23T03:52:31;99450.81;;;15.74;57.91
65553;BME280;52465;51.560;14.368;2023-04-23T03:54:56;99460.13;;;15.76;57.95
65553;BME280;52465;51.560;14.368;2023-04-23T03:57:22;99431.56;;;15.60;57.94
65553;BME280;52465;51.560;14.368;2023-04-23T03:59:47;99461.16;;;15.75;58.00
65553;BME280;52465;51.560;14.368;2023-04-23T04:02:13;99464.59;;;15.76;57.96
65553;BME280;52465;51.560;14.368;2023-04-23T04:04:38;99419.63;;;15.51;58.09
65553;BME280;52465;51.560;14.368;2023-04-23T04:07:04;99424.88;;;15.57;57.90
65553;BME280;52465;51.560;14.368;2023-04-23T04:09:31;99446.78;;;15.65;57.98
65553;BME280;52465;51.560;14.368;2023-04-23T04:11:56;99445.94;;;15.71;57.96
65553;BME280;52465;51.560;14.368;2023-04-23T04:14:22;99443.56;;;15.63;58.15
65553;BME280;52465;51.560;14.368;2023-04-23T04:16:48;99457.13;;;15.73;58.08
65553;BME280;52465;51.560;14.368;2023-04-23T04:19:13;99451.25;;;15.64;58.05
65553;BME280;52465;51.560;14.368;2023-04-23T04:21:39;99439.50;;;15.53;58.04
65553;BME280;52465;51.560;14.368;2023-04-23T04:24:04;99433.22;;;15.48;58.00
65553;BME280;52465;51.560;14.368;2023-04-23T04:26:31;99452.47;;;15.61;57.81
65553;BME280;52465;51.560;14.368;2023-04-23T04:28:57;99447.19;;;15.61;57.81
65553;BME280;52465;51.560;14.368;2023-04-23T04:31:27;99460.94;;;15.77;57.85
65553;BME280;52465;51.560;14.368;2023-04-23T04:33:53;99457.09;;;15.79;57.84
65553;BME280;52465;51.560;14.368;2023-04-23T04:36:25;99457.69;;;15.81;57.66
65553;BME280;52465;51.560;14.368;2023-04-23T04:38:51;99460.72;;;15.85;57.42
65553;BME280;52465;51.560;14.368;2023-04-23T04:41:20;99473.28;;;15.90;57.60
65553;BME280;52465;51.560;14.368;2023-04-23T04:43:47;99461.75;;;15.84;57.75
65553;BME280;52465;51.560;14.368;2023-04-23T04:46:13;99467.56;;;15.93;57.58
65553;BME280;52465;51.560;14.368;2023-04-23T04:48:39;99465.34;;;15.96;57.51
65553;BME280;52465;51.560;14.368;2023-04-23T04:51:05;99455.59;;;15.97;57.35
65553;BME280;52465;51.560;14.368;2023-04-23T04:53:30;99458.63;;;16.00;57.54
65553;BME280;52465;51.560;14.368;2023-04-23T04:55:56;99445.03;;;15.97;57.40
65553;BME280;52465;51.560;14.368;2023-04-23T04:58:21;99452.69;;;16.05;57.39
65553;BME280;52465;51.560;14.368;2023-04-23T05:00:47;99415.44;;;15.81;57.21
65553;BME280;52465;51.560;14.368;2023-04-23T05:03:17;99430.44;;;15.94;57.26
65553;BME280;52465;51.560;14.368;2023-04-23T05:05:43;99447.22;;;16.06;57.37
65553;BME280;52465;51.560;14.368;2023-04-23T05:08:09;99452.28;;;16.08;57.49
65553;BME280;52465;51.560;14.368;2023-04-23T05:10:35;99450.03;;;16.11;57.44
65553;BME280;52465;51.560;14.368;2023-04-23T05:13:01;99444.13;;;16.09;57.35
65553;BME280;52465;51.560;14.368;2023-04-23T05:15:26;99444.31;;;16.14;57.28
65553;BME280;52465;51.560;14.368;2023-04-23T05:17:52;99411.50;;;15.97;57.28
65553;BME280;52465;51.560;14.368;2023-04-23T05:20:19;99435.34;;;16.16;57.32
65553;BME280;52465;51.560;14.368;2023-04-23T05:22:45;99417.56;;;16.04;57.26
65553;BME280;52465;51.560;14.368;2023-04-23T05:25:12;99427.91;;;16.06;57.36
65553;BME280;52465;51.560;14.368;2023-04-23T05:27:38;99440.28;;;16.12;57.27
65553;BME280;52465;51.560;14.368;2023-04-23T05:30:05;99437.69;;;16.05;57.26
65553;BME280;52465;51.560;14.368;2023-04-23T05:32:32;99441.88;;;16.13;57.43
65553;BME280;52465;51.560;14.368;2023-04-23T05:34:57;99446.53;;;16.18;57.40
65553;BME280;52465;51.560;14.368;2023-04-23T05:37:24;99436.78;;;16.18;57.27
65553;BME280;52465;51.560;14.368;2023-04-23T05:39:49;99435.16;;;16.17;57.33
65553;BME280;52465;51.560;14.368;2023-04-23T05:42:15;99454.00;;;16.21;57.41
65553;BME280;52465;51.560;14.368;2023-04-23T05:44:40;99447.13;;;16.20;57.31
65553;BME280;52465;51.560;14.368;2023-04-23T05:47:06;99417.63;;;15.91;57.45
65553;BME280;52465;51.560;14.368;2023-04-23T05:49:33;99412.59;;;15.90;57.37
65553;BME280;52465;51.560;14.368;2023-04-23T05:51:58;99440.13;;;16.00;57.35
65553;BME280;52465;51.560;14.368;2023-04-23T05:54:24;99434.19;;;16.05;57.28
65553;BME280;52465;51.560;14.368;2023-04-23T05:56:49;99455.63;;;16.22;57.48
65553;BME280;52465;51.560;14.368;2023-04-23T05:59:15;99409.31;;;15.94;57.37
65553;BME280;52465;51.560;14.368;2023-04-23T06:01:40;99417.41;;;15.93;57.47
65553;BME280;52465;51.560;14.368;2023-04-23T06:04:06;99446.53;;;16.18;57.43
65553;BME280;52465;51.560;14.368;2023-04-23T06:06:32;99453.22;;;16.20;57.52
65553;BME280;52465;51.560;14.368;2023-04-23T06:08:57;99437.63;;;16.12;57.28
65553;BME280;52465;51.560;14.368;2023-04-23T06:11:23;99450.56;;;16.20;57.50
65553;BME280;52465;51.560;14.368;2023-04-23T06:13:48;99446.31;;;16.19;57.44
65553;BME280;52465;51.560;14.368;2023-04-23T06:16:14;99445.50;;;16.19;57.57
65553;BME280;52465;51.560;14.368;2023-04-23T06:18:40;99413.13;;;15.98;57.60
65553;BME280;52465;51.560;14.368;2023-04-23T06:21:05;99447.34;;;16.18;57.39
65553;BME280;52465;51.560;14.368;2023-04-23T06:23:31;99436.03;;;16.04;57.63
65553;BME280;52465;51.560;14.368;2023-04-23T06:25:57;99443.94;;;16.11;57.63
65553;BME280;52465;51.560;14.368;2023-04-23T06:28:23;99449.81;;;16.13;57.60
65553;BME280;52465;51.560;14.368;2023-04-23T06:30:49;99446.59;;;16.11;57.58
65553;BME280;52465;51.560;14.368;2023-04-23T06:33:15;99443.50;;;16.14;57.67
65553;BME280;52465;51.560;14.368;2023-04-23T06:35:43;99454.47;;;16.18;57.58
65553;BME280;52465;51.560;14.368;2023-04-23T06:38:08;99452.63;;;16.18;57.70
65553;BME280;52465;51.560;14.368;2023-04-23T06:40:34;99449.59;;;16.14;57.62
65553;BME280;52465;51.560;14.368;2023-04-23T06:42:59;99418.66;;;15.90;57.63
65553;BME280;52465;51.560;14.368;2023-04-23T06:45:29;99457.69;;;16.20;57.58
65553;BME280;52465;51.560;14.368;2023-04-23T06:47:56;99430.34;;;16.07;57.71
65553;BME280;52465;51.560;14.368;2023-04-23T06:50:22;99438.84;;;16.09;57.68
65553;BME280;52465;51.560;14.368;2023-04-23T06:52:47;99446.13;;;16.14;57.70
65553;BME280;52465;51.560;14.368;2023-04-23T06:55:12;99445.34;;;16.13;57.53
65553;BME280;52465;51.560;14.368;2023-04-23T06:57:38;99448.38;;;16.17;57.86
65553;BME280;52465;51.560;14.368;2023-04-23T07:00:03;99420.19;;;16.04;57.71
65553;BME280;52465;51.560;14.368;2023-04-23T07:02:32;99445.91;;;16.16;57.77
65553;BME280;52465;51.560;14.368;2023-04-23T07:04:57;99436.44;;;16.08;57.77
65553;BME280;52465;51.560;14.368;2023-04-23T07:07:23;99436.59;;;16.13;57.75
65553;BME280;52465;51.560;14.368;2023-04-23T07:09:48;99448.38;;;16.17;57.56
65553;BME280;52465;51.560;14.368;2023-04-23T07:12:14;99442.88;;;16.19;57.76
65553;BME280;52465;51.560;14.368;2023-04-23T07:14:39;99437.59;;;16.19;57.67
65553;BME280;52465;51.560;14.368;2023-04-23T07:17:05;99432.34;;;16.12;57.68
65553;BME280;52465;51.560;14.368;2023-04-23T07:19:30;99436.56;;;16.20;57.80
65553;BME280;52465;51.560;14.368;2023-04-23T07:21:56;99410.44;;;16.05;57.75
65553;BME280;52465;51.560;14.368;2023-04-23T07:24:21;99442.66;;;16.20;57.64
65553;BME280;52465;51.560;14.368;2023-04-23T07:26:47;99397.09;;;15.93;57.79
65553;BME280;52465;51.560;14.368;2023-04-23T07:29:12;99406.19;;;16.04;57.70
65553;BME280;52465;51.560;14.368;2023-04-23T07:31:38;99420.59;;;16.08;57.91
65553;BME280;52465;51.560;14.368;2023-04-23T07:34:05;99430.50;;;16.12;57.89
65553;BME280;52465;51.560;14.368;2023-04-23T07:36:31;99422.41;;;16.07;57.80
65553;BME280;52465;51.560;14.368;2023-04-23T07:38:56;99450.34;;;16.22;57.77
65553;BME280;52465;51.560;14.368;2023-04-23T07:41:22;99426.25;;;16.11;58.00
65553;BME280;52465;51.560;14.368;2023-04-23T07:43:48;99442.22;;;16.23;57.69
65553;BME280;52465;51.560;14.368;2023-04-23T07:46:14;99430.28;;;16.14;57.64
65553;BME280;52465;51.560;14.368;2023-04-23T07:48:39;99444.88;;;16.23;57.80
65553;BME280;52465;51.560;14.368;2023-04-23T07:51:05;99424.22;;;16.13;57.85
65553;BME280;52465;51.560;14.368;2023-04-23T07:53:30;99444.47;;;16.20;58.12
65553;BME280;52465;51.560;14.368;2023-04-23T07:55:56;99456.84;;;16.26;57.74
65553;BME280;52465;51.560;14.368;2023-04-23T07:58:23;99434.34;;;16.17;57.85
65553;BME280;52465;51.560;14.368;2023-04-23T08:00:48;99450.16;;;16.23;57.87
65553;BME280;52465;51.560;14.368;2023-04-23T08:03:14;99425.22;;;16.12;57.93
65553;BME280;52465;51.560;14.368;2023-04-23T08:05:39;99450.75;;;16.25;57.83
65553;BME280;52465;51.560;14.368;2023-04-23T08:08:05;99444.06;;;16.23;57.97
65553;BME280;52465;51.560;14.368;2023-04-23T08:10:31;99436.81;;;16.11;57.75
65553;BME280;52465;51.560;14.368;2023-04-23T08:12:56;99418.56;;;16.03;57.83
65553;BME280;52465;51.560;14.368;2023-04-23T08:15:22;99462.88;;;16.33;57.79
65553;BME280;52465;51.560;14.368;2023-04-23T08:17:47;99440.75;;;16.27;57.66
65553;BME280;52465;51.560;14.368;2023-04-23T08:20:13;99457.84;;;16.25;57.77
65553;BME280;52465;51.560;14.368;2023-04-23T08:22:38;99475.66;;;16.36;57.71
65553;BME280;52465;51.560;14.368;2023-04-23T08:25:04;99478.53;;;16.34;57.94
65553;BME280;52465;51.560;14.368;2023-04-23T08:27:30;99483.38;;;16.37;57.78
65553;BME280;52465;51.560;14.368;2023-04-23T08:29:55;99476.91;;;16.33;57.94
65553;BME280;52465;51.560;14.368;2023-04-23T08:32:20;99496.38;;;16.39;57.79
65553;BME280;52465;51.560;14.368;2023-04-23T08:34:46;99490.88;;;16.40;58.02
65553;BME280;52465;51.560;14.368;2023-04-23T08:37:11;99481.81;;;16.30;57.95
65553;BME280;52465;51.560;14.368;2023-04-23T08:39:36;99497.19;;;16.39;57.88
65553;BME280;52465;51.560;14.368;2023-04-23T08:42:26;99507.75;;;16.39;57.95
65553;BME280;52465;51.560;14.368;2023-04-23T08:44:54;99502.47;;;16.39;57.88
65553;BME280;52465;51.560;14.368;2023-04-23T08:47:21;99506.72;;;16.40;58.06
65553;BME280;52465;51.560;14.368;2023-04-23T08:49:52;99482.25;;;16.20;57.87
65553;BME280;52465;51.560;14.368;2023-04-23T08:52:22;99467.25;;;16.14;57.61
65553;BME280;52465;51.560;14.368;2023-04-23T08:54:51;99512.38;;;16.44;58.02
65553;BME280;52465;51.560;14.368;2023-04-23T08:57:18;99499.19;;;16.44;57.77
65553;BME280;52465;51.560;14.368;2023-04-23T08:59:44;99500.44;;;16.42;57.98
65553;BME280;52465;51.560;14.368;2023-04-23T09:02:11;99507.94;;;16.45;57.98
65553;BME280;52465;51.560;14.368;2023-04-23T09:04:37;99512.59;;;16.43;57.93
65553;BME280;52465;51.560;14.368;2023-04-23T09:07:05;99513.22;;;16.45;58.11
65553;BME280;52465;51.560;14.368;2023-04-23T09:09:36;99495.59;;;16.32;57.97
65553;BME280;52465;51.560;14.368;2023-04-23T09:12:03;99521.34;;;16.43;57.96
65553;BME280;52465;51.560;14.368;2023-04-23T09:14:29;99486.31;;;16.23;58.07
65553;BME280;52465;51.560;14.368;2023-04-23T09:16:55;99523.78;;;16.45;57.88
65553;BME280;52465;51.560;14.368;2023-04-23T09:19:21;99532.09;;;16.48;58.04
65553;BME280;52465;51.560;14.368;2023-04-23T09:21:46;99518.28;;;16.46;58.03
65553;BME280;52465;51.560;14.368;2023-04-23T09:24:12;99509.75;;;16.44;58.00
65553;BME280;52465;51.560;14.368;2023-04-23T09:26:46;99511.38;;;16.45;58.03
65553;BME280;52465;51.560;14.368;2023-04-23T09:29:22;99530.63;;;16.52;58.00
65553;BME280;52465;51.560;14.368;2023-04-23T09:31:53;99517.25;;;16.47;57.97
65553;BME280;52465;51.560;14.368;2023-04-23T09:34:21;99531.22;;;16.54;57.98
65553;BME280;52465;51.560;14.368;2023-04-23T09:36:49;99525.94;;;16.54;57.77
65553;BME280;52465;51.560;14.368;2023-04-23T09:39:17;99521.09;;;16.51;58.00
65553;BME280;52465;51.560;14.368;2023-04-23T09:41:42;99530.81;;;16.57;58.18
65553;BME280;52465;51.560;14.368;2023-04-23T09:44:09;99516.19;;;16.55;57.97
65553;BME280;52465;51.560;14.368;2023-04-23T09:46:38;99501.41;;;16.47;58.12
65553;BME280;52465;51.560;14.368;2023-04-23T09:49:05;99519.81;;;16.60;58.06
65553;BME280;52465;51.560;14.368;2023-04-23T09:51:47;99509.66;;;16.57;57.96
65553;BME280;52465;51.560;14.368;2023-04-23T09:54:20;99492.28;;;16.43;57.98
65553;BME280;52465;51.560;14.368;2023-04-23T09:56:53;99500.78;;;16.52;58.21
65553;BME280;52465;51.560;14.368;2023-04-23T09:59:24;99515.13;;;16.62;58.10
65553;BME280;52465;51.560;14.368;2023-04-23T10:01:50;99497.69;;;16.55;58.00
65553;BME280;52465;51.560;14.368;2023-04-23T10:04:22;99512.25;;;16.64;57.95
65553;BME280;52465;51.560;14.368;2023-04-23T10:06:55;99517.16;;;16.60;58.05
65553;BME280;52465;51.560;14.368;2023-04-23T10:09:21;99510.25;;;16.59;58.25
65553;BME280;52465;51.560;14.368;2023-04-23T10:11:58;99502.38;;;16.53;58.00
65553;BME280;52465;51.560;14.368;2023-04-23T10:14:25;99524.22;;;16.66;58.21
65553;BME280;52465;51.560;14.368;2023-04-23T10:16:52;99519.16;;;16.65;58.05
65553;BME280;52465;51.560;14.368;2023-04-23T10:19:23;99519.59;;;16.62;58.07
65553;BME280;52465;51.560;14.368;2023-04-23T10:21:53;99517.16;;;16.60;58.47
65553;BME280;52465;51.560;14.368;2023-04-23T10:24:22;99515.31;;;16.61;58.11
65553;BME280;52465;51.560;14.368;2023-04-23T10:26:50;99519.22;;;16.58;58.19
65553;BME280;52465;51.560;14.368;2023-04-23T10:29:20;99512.50;;;16.62;58.14
65553;BME280;52465;51.560;14.368;2023-04-23T10:31:51;99524.69;;;16.63;58.29
65553;BME280;52465;51.560;14.368;2023-04-23T10:34:17;99517.56;;;16.64;58.21
65553;BME280;52465;51.560;14.368;2023-04-23T10:36:43;99525.25;;;16.65;58.22
65553;BME280;52465;51.560;14.368;2023-04-23T10:39:08;99496.69;;;16.49;58.47
65553;BME280;52465;51.560;14.368;2023-04-23T10:41:37;99528.50;;;16.67;58.23
65553;BME280;52465;51.560;14.368;2023-04-23T10:44:04;99517.31;;;16.65;58.35
65553;BME280;52465;51.560;14.368;2023-04-23T10:46:30;99520.19;;;16.64;58.36
65553;BME280;52465;51.560;14.368;2023-04-23T10:51:35;99531.16;;;16.67;58.22
65553;BME280;52465;51.560;14.368;2023-04-23T10:54:03;99530.34;;;16.67;58.36
65553;BME280;52465;51.560;14.368;2023-04-23T10:56:29;99523.88;;;16.63;58.32
65553;BME280;52465;51.560;14.368;2023-04-23T10:58:55;99505.59;;;16.55;58.21
65553;BME280;52465;51.560;14.368;2023-04-23T11:01:27;99525.25;;;16.65;58.35
65553;BME280;52465;51.560;14.368;2023-04-23T11:03:52;99527.91;;;16.65;58.29
65553;BME280;52465;51.560;14.368;2023-04-23T11:14:48;99501.56;;;16.52;58.51
65553;BME280;52465;51.560;14.368;2023-04-23T11:17:16;99502.38;;;16.53;58.42
65553;BME280;52465;51.560;14.368;2023-04-23T11:22:22;99507.03;;;16.57;58.60
65553;BME280;52465;51.560;14.368;2023-04-23T11:24:51;99518.34;;;16.64;58.51
65553;BME280;52465;51.560;14.368;2023-04-23T11:27:18;99512.91;;;16.59;58.27
65553;BME280;52465;51.560;14.368;2023-04-23T11:29:45;99499.31;;;16.56;58.26
65553;BME280;52465;51.560;14.368;2023-04-23T11:32:12;99515.72;;;16.64;58.44
65553;BME280;52465;51.560;14.368;2023-04-23T11:34:40;99476.44;;;16.43;58.45
65553;BME280;52465;51.560;14.368;2023-04-23T11:37:09;99518.94;;;16.66;58.68
65553;BME280;52465;51.560;14.368;2023-04-23T11:39:35;99516.31;;;16.66;58.52
65553;BME280;52465;51.560;14.368;2023-04-23T11:42:01;99509.22;;;16.67;58.58
65553;BME280;52465;51.560;14.368;2023-04-23T11:44:28;99503.94;;;16.67;58.53
65553;BME280;52465;51.560;14.368;2023-04-23T11:47:00;99499.06;;;16.64;58.49
65553;BME280;52465;51.560;14.368;2023-04-23T11:49:26;99493.19;;;16.62;58.57
65553;BME280;52465;51.560;14.368;2023-04-23T11:51:51;99498.81;;;16.65;58.38
65553;BME280;52465;51.560;14.368;2023-04-23T11:54:24;99492.09;;;16.70;58.64
65553;BME280;52465;51.560;14.368;2023-04-23T11:56:52;99493.75;;;16.64;58.41
65553;BME280;52465;51.560;14.368;2023-04-23T11:59:17;99466.84;;;16.49;58.34
65553;BME280;52465;51.560;14.368;2023-04-23T12:01:45;99506.13;;;16.70;58.54
65553;BME280;52465;51.560;14.368;2023-04-23T12:04:17;99497.84;;;16.60;58.58
65553;BME280;52465;51.560;14.368;2023-04-23T12:06:45;99515.50;;;16.66;58.50
65553;BME280;52465;51.560;14.368;2023-04-23T12:09:12;99507.63;;;16.59;58.50
65553;BME280;52465;51.560;14.368;2023-04-23T12:11:41;99526.25;;;16.71;58.59
65553;BME280;52465;51.560;14.368;2023-04-23T12:14:08;99533.78;;;16.74;58.57
65553;BME280;52465;51.560;14.368;2023-04-23T12:16:42;99531.75;;;16.70;58.47
65553;BME280;52465;51.560;14.368;2023-04-23T12:22:04;99542.94;;;16.72;59.25
65553;BME280;52465;51.560;14.368;2023-04-23T12:24:47;99535.81;;;16.72;59.02
65553;BME280;52465;51.560;14.368;2023-04-23T12:27:18;99543.72;;;16.79;58.91
65553;BME280;52465;51.560;14.368;2023-04-23T12:29:44;99548.56;;;16.82;58.81
65553;BME280;52465;51.560;14.368;2023-04-23T12:32:12;99542.91;;;16.78;58.87
65553;BME280;52465;51.560;14.368;2023-04-23T12:37:17;99541.03;;;16.85;58.54
65553;BME280;52465;51.560;14.368;2023-04-23T12:39:47;99541.03;;;16.85;58.59
65553;BME280;52465;51.560;14.368;2023-04-23T12:42:13;99527.06;;;16.72;58.79
65553;BME280;52465;51.560;14.368;2023-04-23T12:44:38;99544.47;;;16.86;58.66
65553;BME280;52465;51.560;14.368;2023-04-23T12:47:07;99517.31;;;16.65;58.64
65553;BME280;52465;51.560;14.368;2023-04-23T12:49:34;99547.75;;;16.81;58.81
65553;BME280;52465;51.560;14.368;2023-04-23T12:52:01;99516.31;;;16.66;58.59
65553;BME280;52465;51.560;14.368;2023-04-23T12:54:29;99547.75;;;16.81;58.72
65553;BME280;52465;51.560;14.368;2023-04-23T12:56:56;99554.25;;;16.85;58.55
65553;BME280;52465;51.560;14.368;2023-04-23T12:59:22;99549.38;;;16.82;58.57
65553;BME280;52465;51.560;14.368;2023-04-23T13:01:49;99521.00;;;16.64;58.68
65553;BME280;52465;51.560;14.368;2023-04-23T13:04:15;99541.50;;;16.76;58.67
65553;BME280;52465;51.560;14.368;2023-04-23T13:06:40;99528.44;;;16.81;58.64